createdAt,value
2023-05-28T00:00:09.120Z,82.84
2023-05-28T00:15:00.866Z,84.36
2023-05-28T00:30:00.705Z,85.63
2023-05-28T00:45:00.549Z,85.63
2023-05-28T01:00:00.370Z,87.52
2023-05-28T01:15:00.280Z,89.22
2023-05-28T01:30:00.063Z,89.73
2023-05-28T01:44:59.972Z,90.39
2023-05-28T01:59:59.748Z,91.56
2023-05-28T02:14:59.587Z,91.46
2023-05-28T02:29:59.435Z,92.84
2023-05-28T02:44:59.257Z,94.23
2023-05-28T02:59:59.107Z,94.99
2023-05-28T03:14:59.054Z,95.40
2023-05-28T03:29:58.785Z,95.71
2023-05-28T03:44:58.630Z,95.92
2023-05-28T03:59:58.469Z,95.05
2023-05-28T04:14:58.333Z,95.17
2023-05-28T04:29:58.177Z,94.15
2023-05-28T04:44:57.977Z,91.51
2023-05-28T04:59:57.821Z,88.72
2023-05-28T05:14:57.682Z,79.44
2023-05-28T05:29:57.525Z,79.57
2023-05-28T05:44:57.368Z,70.65
2023-05-28T05:59:57.207Z,55.50
2023-05-28T06:14:57.033Z,52.79
2023-05-28T06:29:56.877Z,52.47
2023-05-28T06:44:56.714Z,40.97
2023-05-28T06:59:56.556Z,39.23
2023-05-28T07:14:57.551Z,36.68
2023-05-28T07:29:56.234Z,34.69
2023-05-28T07:44:56.098Z,33.68
2023-05-28T07:59:55.944Z,34.36
2023-05-28T08:14:55.758Z,32.71
2023-05-28T08:29:55.616Z,29.77
2023-05-28T08:44:55.457Z,30.24
2023-05-28T08:59:56.207Z,29.05
2023-05-28T09:14:55.200Z,31.79
2023-05-28T09:29:54.987Z,27.81
2023-05-28T09:44:54.886Z,28.00
2023-05-28T09:59:54.699Z,28.10
2023-05-28T10:14:54.483Z,27.33
2023-05-28T10:29:54.373Z,31.29
2023-05-28T10:44:54.171Z,30.07
2023-05-28T10:59:54.015Z,28.06
2023-05-28T11:14:53.883Z,25.51
2023-05-28T11:29:53.740Z,30.13
2023-05-28T11:44:53.542Z,28.41
2023-05-28T11:59:53.439Z,30.09
2023-05-28T12:14:53.244Z,26.43
2023-05-28T12:29:53.142Z,28.11
2023-05-28T12:44:52.897Z,28.28
2023-05-28T12:59:52.757Z,26.43
2023-05-28T13:14:52.600Z,27.88
2023-05-28T13:29:53.220Z,26.80
2023-05-28T13:44:52.282Z,25.43
2023-05-28T13:59:53.259Z,25.13
2023-05-28T14:14:51.982Z,25.31
2023-05-28T14:29:51.932Z,24.94
2023-05-28T14:44:51.814Z,25.61
2023-05-28T14:59:51.538Z,24.99
2023-05-28T15:14:51.407Z,25.84
2023-05-28T15:29:51.184Z,26.16
2023-05-28T15:44:51.005Z,27.25
2023-05-28T15:59:50.859Z,25.85
2023-05-28T16:14:50.700Z,29.24
2023-05-28T16:29:50.543Z,28.72
2023-05-28T16:44:50.426Z,28.50
2023-05-28T16:59:50.276Z,30.11
2023-05-28T17:14:50.067Z,37.82
2023-05-28T17:29:49.903Z,35.86
2023-05-28T17:44:49.792Z,35.99
2023-05-28T17:59:49.688Z,39.05
2023-05-28T18:14:49.475Z,38.99
2023-05-28T18:29:49.249Z,39.23
2023-05-28T18:44:49.109Z,41.53
2023-05-28T18:59:49.009Z,47.66
2023-05-28T19:14:48.797Z,49.13
2023-05-28T19:29:48.625Z,52.87
2023-05-28T19:44:48.476Z,55.04
2023-05-28T19:59:48.346Z,55.70
2023-05-28T20:14:48.159Z,58.62
2023-05-28T20:29:47.994Z,58.34
2023-05-28T20:44:47.929Z,58.36
2023-05-28T20:59:47.728Z,60.68
2023-05-28T21:14:47.538Z,61.08
2023-05-28T21:29:47.356Z,62.23
2023-05-28T21:44:47.295Z,62.46
2023-05-28T21:59:47.057Z,63.63
2023-05-28T22:14:46.883Z,65.18
2023-05-28T22:29:46.737Z,66.80
2023-05-28T22:44:46.582Z,67.84
2023-05-28T22:59:46.412Z,69.20
2023-05-28T23:14:46.260Z,71.60
2023-05-28T23:29:46.090Z,73.30
2023-05-28T23:44:45.949Z,74.58
2023-05-28T23:59:45.778Z,75.88
